Time;durP1;ratioP1;P1;durP2;ratioP2;P2;SDS_P1;SDS_P2;PMS_P1;PMS_P2;Temp;Humidity;BMP_temperature;BMP_pressure;BME280_temperature;BME280_humidity;BME280_pressure;Samples;Min_cycle;Max_cycle;Signal;HPM_P1;HPM_P2
2024/01/30 00:01:24;;;;;;;13.90;12.77;;;;;;;0.27;73.16;94594.84;5007506;28;20208;-76
2024/01/30 00:03:51;;;;;;;13.67;12.70;;;;;;;0.21;73.01;94592.97;5012250;28;20199;-74
2024/01/30 00:06:23;;;;;;;15.07;13.97;;;;;;;-0.04;75.02;94590.50;5011749;28;20219;-74
2024/01/30 00:08:49;;;;;;;16.53;14.83;;;;;;;-0.22;74.79;94599.38;5012224;28;20179;-74
2024/01/30 00:11:16;;;;;;;14.43;13.37;;;;;;;-0.05;74.85;94595.81;5011641;28;20249;-74
2024/01/30 00:13:43;;;;;;;13.87;12.87;;;;;;;-0.11;74.73;94602.38;5012184;28;20198;-74
2024/01/30 00:16:24;;;;;;;12.67;11.87;;;;;;;-0.12;72.92;94605.13;5011761;28;20290;-74
2024/01/30 00:18:53;;;;;;;13.20;12.30;;;;;;;-0.14;73.03;94612.19;5011997;28;20187;-73
2024/01/30 00:21:20;;;;;;;13.03;11.93;;;;;;;0.04;73.17;94602.50;5011792;28;20234;-72
2024/01/30 00:23:47;;;;;;;13.43;12.53;;;;;;;0.06;73.47;94604.91;5012032;28;20191;-75
2024/01/30 00:26:17;;;;;;;14.20;13.10;;;;;;;-0.07;72.87;94610.56;5011794;28;20231;-75
2024/01/30 00:28:44;;;;;;;13.63;12.63;;;;;;;-0.01;73.43;94609.91;5011974;28;20250;-73
2024/01/30 00:31:12;;;;;;;12.57;11.77;;;;;;;0.20;72.38;94606.78;5011277;28;20239;-75
2024/01/30 00:33:39;;;;;;;14.00;13.10;;;;;;;0.12;73.19;94610.19;5011695;28;20209;-78
2024/01/30 00:36:07;;;;;;;13.73;12.73;;;;;;;0.18;72.54;94594.09;5011267;28;20261;-78
2024/01/30 00:38:33;;;;;;;14.50;13.40;;;;;;;0.37;72.19;94605.72;5010372;28;20258;-78
2024/01/30 00:40:59;;;;;;;12.90;11.83;;;;;;;0.39;72.31;94604.59;5009457;28;20227;-77
2024/01/30 00:43:25;;;;;;;14.30;13.20;;;;;;;0.39;72.37;94607.16;5011648;28;20190;-77
2024/01/30 00:45:52;;;;;;;12.23;11.33;;;;;;;0.42;71.39;94601.69;5009501;28;20279;-77
2024/01/30 00:48:19;;;;;;;15.03;14.03;;;;;;;0.42;71.33;94603.47;5011540;28;20206;-77
2024/01/30 00:50:46;;;;;;;12.97;11.93;;;;;;;0.20;72.67;94602.44;5008953;28;20216;-77
2024/01/30 00:53:12;;;;;;;13.60;12.60;;;;;;;0.06;73.26;94581.81;5011430;28;20231;-77
2024/01/30 00:55:38;;;;;;;14.17;12.97;;;;;;;0.26;73.88;94606.09;5010095;28;20227;-77
2024/01/30 00:58:05;;;;;;;13.47;12.27;;;;;;;0.22;73.57;94603.06;5011542;28;20187;-77
2024/01/30 01:00:32;;;;;;;13.10;12.10;;;;;;;0.09;73.94;94595.13;5009811;28;20215;-77
2024/01/30 01:02:59;;;;;;;13.03;12.07;;;;;;;0.00;73.68;94596.13;5011397;28;20224;-77
2024/01/30 01:05:26;;;;;;;13.37;12.33;;;;;;;-0.13;75.00;94590.69;5009980;28;20191;-77
2024/01/30 01:07:53;;;;;;;14.83;13.63;;;;;;;-0.43;75.38;94586.28;5011295;28;20180;-77
2024/01/30 01:10:20;;;;;;;13.73;12.27;;;;;;;-0.56;76.17;94588.56;5010223;28;20207;-77
2024/01/30 01:12:48;;;;;;;13.83;12.80;;;;;;;-0.44;75.93;94588.06;5011212;28;20207;-77
2024/01/30 01:15:14;;;;;;;13.17;12.23;;;;;;;-0.62;75.90;94566.09;5010713;28;20190;-77
2024/01/30 01:17:41;;;;;;;13.20;12.30;;;;;;;-0.42;76.16;94590.47;5011142;28;20176;-77
2024/01/30 01:20:08;;;;;;;13.97;12.97;;;;;;;-0.49;76.17;94592.06;4991981;28;20253;-77
2024/01/30 01:22:34;;;;;;;14.07;13.07;;;;;;;-0.63;76.49;94578.16;4991303;28;20220;-77
2024/01/30 01:25:01;;;;;;;13.80;12.70;;;;;;;-0.66;76.37;94585.34;4992040;28;20176;-77
2024/01/30 01:27:28;;;;;;;35.50;22.97;;;;;;;-0.88;76.40;94561.19;4991370;28;20228;-77
2024/01/30 01:29:55;;;;;;;29.50;21.53;;;;;;;-0.73;76.79;94589.53;4991537;28;20176;-77
2024/01/30 01:32:22;;;;;;;41.67;25.70;;;;;;;-0.87;77.19;94585.06;4990668;28;20265;-77
2024/01/30 01:34:48;;;;;;;41.93;25.83;;;;;;;-1.02;77.61;94563.59;4991251;28;20184;-77
2024/01/30 01:37:14;;;;;;;30.60;21.17;;;;;;;-0.73;77.92;94581.84;4990820;28;20231;-77
2024/01/30 01:39:40;;;;;;;17.77;15.97;;;;;;;-0.96;78.17;94545.00;4991318;28;20281;-77
2024/01/30 01:42:06;;;;;;;24.13;18.03;;;;;;;-0.68;77.97;94585.50;4988740;28;20215;-77
2024/01/30 01:44:32;;;;;;;20.77;18.17;;;;;;;-0.49;76.49;94598.00;4991376;28;20180;-77
2024/01/30 01:46:59;;;;;;;25.57;18.73;;;;;;;-0.34;75.77;94600.69;4990783;28;20283;-76
2024/01/30 01:49:29;;;;;;;39.70;27.43;;;;;;;-0.59;74.57;94591.44;4991260;28;20173;-77
2024/01/30 01:51:57;;;;;;;396.73;189.97;;;;;;;-0.38;73.71;94597.66;4990653;28;20240;-76
2024/01/30 01:54:26;;;;;;;68.87;40.97;;;;;;;-0.27;70.46;94593.94;4990980;28;20207;-76
2024/01/30 01:56:54;;;;;;;13.20;12.10;;;;;;;-0.29;70.13;94580.47;4989344;28;20255;-76
2024/01/30 01:59:22;;;;;;;20.53;16.77;;;;;;;-0.16;69.26;94596.94;4990367;28;20255;-76
2024/01/30 02:01:51;;;;;;;26.67;21.80;;;;;;;-0.04;72.02;94595.63;4988894;28;20246;-76
2024/01/30 02:04:17;;;;;;;16.13;14.53;;;;;;;-0.06;71.46;94607.03;4990106;28;20191;-76
2024/01/30 02:06:44;;;;;;;13.50;12.53;;;;;;;0.08;70.93;94602.97;4989132;28;20327;-76
2024/01/30 02:09:10;;;;;;;13.63;12.80;;;;;;;-0.09;72.55;94602.22;4991115;28;20168;-76
2024/01/30 02:11:36;;;;;;;16.50;15.20;;;;;;;-0.32;73.45;94591.06;4989098;28;20238;-76
2024/01/30 02:14:04;;;;;;;15.97;14.63;;;;;;;-0.10;73.67;94609.13;4991128;28;20183;-76
2024/01/30 02:16:31;;;;;;;14.97;13.67;;;;;;;-0.28;74.20;94576.94;4990540;28;20303;-76
2024/01/30 02:18:58;;;;;;;16.83;14.53;;;;;;;0.01;72.07;94584.88;4990998;28;20239;-76
2024/01/30 02:21:26;;;;;;;14.63;13.43;;;;;;;0.12;73.16;94599.91;4989381;28;20227;-76
2024/01/30 02:23:54;;;;;;;15.37;13.80;;;;;;;0.21;72.16;94606.59;4990821;28;20259;-76
2024/01/30 02:26:20;;;;;;;15.57;13.00;;;;;;;0.19;71.29;94603.41;4989740;28;20223;-76
2024/01/30 02:28:46;;;;;;;14.63;13.37;;;;;;;-0.03;72.51;94601.56;4990857;28;20176;-76
2024/01/30 02:31:11;;;;;;;13.43;12.37;;;;;;;0.20;71.77;94602.44;4989601;28;20231;-76
2024/01/30 02:33:37;;;;;;;12.37;11.50;;;;;;;0.03;71.73;94578.59;4990772;28;20214;-76
2024/01/30 02:36:04;;;;;;;14.53;13.40;;;;;;;0.24;71.84;94593.44;4989535;28;20249;-77
2024/01/30 02:38:31;;;;;;;13.63;12.53;;;;;;;0.24;70.69;94598.56;4990451;28;20176;-77
2024/01/30 02:40:59;;;;;;;13.33;12.37;;;;;;;0.29;69.77;94598.88;4989673;28;20208;-77
2024/01/30 02:43:25;;;;;;;13.90;13.00;;;;;;;0.20;69.53;94599.88;4990448;28;20192;-77
2024/01/30 02:45:51;;;;;;;13.27;12.30;;;;;;;-0.07;70.16;94600.28;4989980;28;20302;-77
2024/01/30 02:48:17;;;;;;;13.47;12.57;;;;;;;-0.03;70.70;94593.84;4990524;28;20176;-77
2024/01/30 02:50:43;;;;;;;12.47;11.67;;;;;;;0.15;70.30;94604.72;4989743;28;20277;-77
2024/01/30 02:53:10;;;;;;;12.90;12.10;;;;;;;0.08;69.90;94601.19;4990415;28;20208;-77
2024/01/30 02:55:37;;;;;;;13.40;12.40;;;;;;;0.11;70.49;94608.56;4990283;28;20232;-77
2024/01/30 02:58:04;;;;;;;13.37;12.47;;;;;;;0.02;69.92;94571.06;4989779;28;20195;-77
2024/01/30 03:00:30;;;;;;;12.07;11.20;;;;;;;0.26;69.04;94600.97;4989930;28;20245;-77
2024/01/30 03:02:56;;;;;;;11.67;10.97;;;;;;;0.23;68.54;94581.56;4990396;28;20216;-77
2024/01/30 03:05:22;;;;;;;13.73;12.73;;;;;;;0.27;69.21;94603.38;4989928;28;20199;-77
2024/01/30 03:07:48;;;;;;;12.67;11.87;;;;;;;-0.12;70.89;94589.72;4990223;28;20177;-77
2024/01/30 03:10:14;;;;;;;13.43;12.43;;;;;;;-0.19;70.69;94587.00;4987611;28;20186;-77
2024/01/30 03:12:41;;;;;;;12.87;11.97;;;;;;;-0.07;71.25;94584.88;4990133;28;20554;-77
2024/01/30 03:15:09;;;;;;;12.47;11.57;;;;;;;0.22;70.15;94599.72;4991908;28;20188;-77
2024/01/30 03:17:37;;;;;;;13.77;12.67;;;;;;;-0.18;70.27;94549.31;5095727;28;20220;-77
2024/01/30 03:20:06;;;;;;;13.07;12.17;;;;;;;-0.11;71.16;94563.09;5095695;28;20204;-77
2024/01/30 03:22:32;;;;;;;12.87;11.97;;;;;;;0.25;71.47;94597.59;4992818;28;20216;-77
2024/01/30 03:24:58;;;;;;;13.90;12.80;;;;;;;-0.01;70.35;94577.34;4993625;28;20210;-77
2024/01/30 03:27:23;;;;;;;13.40;12.43;;;;;;;-0.08;70.81;94588.44;4991507;28;20327;-77
2024/01/30 03:29:50;;;;;;;13.13;12.27;;;;;;;0.03;69.90;94579.56;4993393;28;20202;-77
2024/01/30 03:32:17;;;;;;;13.57;12.67;;;;;;;-0.01;71.05;94590.16;4991267;28;20224;-77
2024/01/30 03:34:44;;;;;;;13.17;12.27;;;;;;;0.13;69.65;94562.97;4993387;28;20247;-77
2024/01/30 03:37:12;;;;;;;13.17;12.13;;;;;;;0.47;69.64;94590.94;4992963;28;20228;-78
2024/01/30 03:39:37;;;;;;;13.40;12.37;;;;;;;0.33;69.23;94583.94;4993299;28;20242;-77
2024/01/30 03:42:03;;;;;;;12.47;11.57;;;;;;;0.46;68.11;94592.69;4991216;28;20232;-77
2024/01/30 03:44:29;;;;;;;12.43;11.63;;;;;;;-0.28;69.89;94587.22;4992998;28;20244;-77
2024/01/30 03:46:55;;;;;;;12.63;11.93;;;;;;;-0.16;67.46;94584.09;4991285;28;20231;-77
2024/01/30 03:49:21;;;;;;;13.27;12.27;;;;;;;-0.18;67.91;94562.16;4992990;28;20195;-77
2024/01/30 03:51:49;;;;;;;11.70;11.00;;;;;;;-0.08;68.13;94578.16;4991270;28;20224;-77
2024/01/30 03:54:16;;;;;;;12.43;11.63;;;;;;;-0.23;69.43;94554.94;4992804;28;20214;-77
2024/01/30 03:56:41;;;;;;;11.97;11.27;;;;;;;-0.06;70.25;94581.34;4991759;28;20254;-77
2024/01/30 03:59:07;;;;;;;12.37;11.60;;;;;;;-0.19;70.00;94552.84;4992860;28;20168;-77
2024/01/30 04:01:33;;;;;;;11.97;11.13;;;;;;;-0.06;69.16;94553.09;4992287;28;20208;-77
2024/01/30 04:03:59;;;;;;;11.23;10.63;;;;;;;-0.01;68.54;94553.41;4992546;28;20192;-77
2024/01/30 04:06:26;;;;;;;10.97;10.37;;;;;;;-0.01;67.47;94576.53;4991397;28;20236;-77
2024/01/30 04:08:54;;;;;;;12.37;11.67;;;;;;;0.14;67.92;94567.13;4992713;28;20188;-77
2024/01/30 04:11:20;;;;;;;11.97;11.10;;;;;;;0.03;66.04;94573.44;4991332;28;20244;-77
2024/01/30 04:13:48;;;;;;;11.57;10.70;;;;;;;0.13;66.77;94580.97;4992691;28;20210;-77
2024/01/30 04:16:22;;;;;;;10.93;10.33;;;;;;;-0.17;66.54;94548.34;4991438;28;20228;-77
2024/01/30 04:18:48;;;;;;;12.60;12.00;;;;;;;-0.15;67.21;94572.06;4992710;28;20247;-77
2024/01/30 04:21:13;;;;;;;11.57;10.73;;;;;;;-0.10;67.38;94580.91;4991551;28;20232;-77
2024/01/30 04:23:41;;;;;;;12.17;11.37;;;;;;;0.18;66.19;94578.69;4992436;28;20172;-76
2024/01/30 04:26:07;;;;;;;11.27;10.67;;;;;;;0.17;66.97;94577.09;4991322;28;20244;-77
2024/01/30 04:28:33;;;;;;;11.53;10.93;;;;;;;-0.05;66.67;94559.88;4992353;28;20179;-77
2024/01/30 04:30:59;;;;;;;11.23;10.67;;;;;;;-0.49;67.44;94526.19;4991886;28;20216;-77
2024/01/30 04:33:27;;;;;;;11.50;10.90;;;;;;;-0.14;67.79;94581.41;4992325;28;20211;-77
2024/01/30 04:35:52;;;;;;;11.17;10.67;;;;;;;-0.20;67.44;94580.28;4991994;28;20223;-77
2024/01/30 04:38:18;;;;;;;10.07;9.60;;;;;;;-0.18;67.61;94587.81;4992173;28;20184;-77
2024/01/30 04:40:44;;;;;;;11.33;10.73;;;;;;;-0.42;68.13;94583.53;4991754;28;20230;-77
2024/01/30 04:43:10;;;;;;;11.67;11.07;;;;;;;-0.35;67.20;94588.81;4992046;28;20187;-77
2024/01/30 04:45:37;;;;;;;11.83;11.13;;;;;;;-0.34;66.86;94582.72;4989520;28;20238;-77
2024/01/30 04:48:03;;;;;;;12.20;11.60;;;;;;;-0.47;67.96;94588.34;4992178;28;20199;-77
2024/01/30 04:50:30;;;;;;;11.73;11.13;;;;;;;-0.44;68.33;94588.06;4989475;28;20187;-75
2024/01/30 04:52:56;;;;;;;11.87;11.13;;;;;;;-0.52;68.33;94582.94;4991971;28;20196;-75
2024/01/30 04:55:22;;;;;;;11.90;11.20;;;;;;;-0.63;68.58;94585.03;4989983;28;20234;-78
2024/01/30 04:57:48;;;;;;;11.43;10.73;;;;;;;-0.59;67.86;94591.44;4992034;28;20188;-77
2024/01/30 05:00:15;;;;;;;10.73;10.07;;;;;;;-0.57;68.17;94600.56;4989732;28;20180;-78
2024/01/30 05:02:42;;;;;;;11.80;11.10;;;;;;;-0.73;67.74;94586.97;4991890;28;20207;-73
2024/01/30 05:05:09;;;;;;;11.60;11.00;;;;;;;-0.74;68.39;94588.72;4991942;28;20212;-74
2024/01/30 05:07:37;;;;;;;12.07;11.33;;;;;;;-0.78;68.28;94602.03;5093580;28;20192;-76
2024/01/30 05:10:04;;;;;;;11.70;11.10;;;;;;;-0.79;67.49;94598.66;5093790;28;20191;-75
2024/01/30 05:12:30;;;;;;;11.33;10.83;;;;;;;-0.67;66.81;94596.59;4992655;28;20228;-79
2024/01/30 05:14:56;;;;;;;11.87;10.93;;;;;;;-0.71;67.26;94597.84;4991767;28;20180;-81
2024/01/30 05:17:22;;;;;;;11.67;11.07;;;;;;;-0.87;69.01;94595.31;4989889;28;20228;-81
2024/01/30 05:19:48;;;;;;;12.03;11.40;;;;;;;-0.83;69.70;94607.66;4991559;28;20238;-79
2024/01/30 05:22:15;;;;;;;10.97;10.37;;;;;;;-1.00;68.42;94570.16;4989879;28;20248;-79
2024/01/30 05:24:42;;;;;;;11.20;10.60;;;;;;;-0.87;69.30;94595.31;4991609;28;20187;-78
2024/01/30 05:27:10;;;;;;;12.70;11.63;;;;;;;-0.75;69.86;94609.41;4990754;28;20235;-81
2024/01/30 05:29:38;;;;;;;11.93;11.13;;;;;;;-0.64;68.85;94609.84;4991743;28;20187;-80
2024/01/30 05:32:05;;;;;;;11.77;10.97;;;;;;;-0.68;69.22;94607.78;4990984;28;20239;-77
2024/01/30 05:34:31;;;;;;;13.73;12.73;;;;;;;-0.72;68.46;94614.22;4991277;28;20184;-78
2024/01/30 05:36:57;;;;;;;12.17;11.43;;;;;;;-0.62;68.07;94609.69;4989913;28;20224;-82
2024/01/30 05:39:23;;;;;;;13.87;12.90;;;;;;;-0.68;67.75;94605.22;4991206;28;20235;-78
2024/01/30 05:41:49;;;;;;;14.50;13.07;;;;;;;-0.73;67.91;94607.50;4990742;28;20258;-79
2024/01/30 05:44:16;;;;;;;13.30;12.40;;;;;;;-0.76;70.36;94612.91;4991295;28;20263;-78
2024/01/30 05:46:41;;;;;;;14.10;13.00;;;;;;;-0.70;70.81;94612.28;4990639;28;20258;-80
2024/01/30 05:49:07;;;;;;;13.83;12.73;;;;;;;-0.67;70.38;94615.31;4991002;28;20176;-74
2024/01/30 05:51:33;;;;;;;13.60;12.30;;;;;;;-0.66;70.62;94608.44;4990439;28;20224;-75
2024/01/30 05:54:03;;;;;;;13.27;12.37;;;;;;;-0.80;71.05;94611.66;4990952;28;20188;-75
2024/01/30 05:56:29;;;;;;;12.27;11.57;;;;;;;-0.59;71.36;94606.84;4991335;28;20251;-75
2024/01/30 05:58:56;;;;;;;14.23;13.07;;;;;;;-0.59;71.53;94601.72;4990947;28;20185;-75
2024/01/30 06:01:24;;;;;;;13.40;12.17;;;;;;;-0.71;72.17;94605.53;4990385;28;20228;-75
2024/01/30 06:03:50;;;;;;;13.40;12.50;;;;;;;-0.72;73.00;94609.88;4990884;28;20184;-74
2024/01/30 06:06:16;;;;;;;13.47;12.57;;;;;;;-0.84;73.33;94607.81;4990495;28;20302;-75
2024/01/30 06:08:42;;;;;;;13.83;12.83;;;;;;;-0.81;73.16;94605.72;4990733;28;20172;-76
2024/01/30 06:11:12;;;;;;;14.07;12.80;;;;;;;-0.84;73.72;94600.91;4990409;28;20254;-75
2024/01/30 06:13:37;;;;;;;15.40;13.80;;;;;;;-0.80;73.19;94603.94;4990791;28;20188;-76
2024/01/30 06:16:05;;;;;;;14.90;13.60;;;;;;;-0.76;72.41;94600.09;4989347;28;20227;-76
2024/01/30 06:18:32;;;;;;;18.60;16.20;;;;;;;-0.86;73.04;94613.09;4990828;28;20219;-76
2024/01/30 06:21:00;;;;;;;16.40;14.90;;;;;;;-0.83;72.01;94604.28;4990507;28;20222;-76
2024/01/30 06:23:26;;;;;;;18.13;16.43;;;;;;;-0.84;71.30;94612.94;4990693;28;20187;-76
2024/01/30 06:25:52;;;;;;;18.20;16.60;;;;;;;-0.69;72.32;94613.88;4990591;28;20228;-76
2024/01/30 06:28:18;;;;;;;17.67;15.70;;;;;;;-0.55;71.31;94615.81;4990642;28;20233;-76
2024/01/30 06:30:44;;;;;;;15.73;14.33;;;;;;;-0.54;70.85;94612.25;4990025;28;20239;-76
2024/01/30 06:33:13;;;;;;;18.73;15.93;;;;;;;-0.36;70.45;94623.16;4990628;28;20216;-76
2024/01/30 06:35:40;;;;;;;17.27;14.70;;;;;;;-0.36;69.84;94621.38;4990162;28;20667;-76
2024/01/30 06:38:07;;;;;;;16.37;14.70;;;;;;;-0.33;69.89;94615.13;4990525;28;20180;-75
2024/01/30 06:40:33;;;;;;;14.77;13.13;;;;;;;-0.28;68.44;94623.91;4989682;28;20231;-76
2024/01/30 06:42:58;;;;;;;13.47;12.43;;;;;;;-0.16;67.78;94621.81;4990423;28;20191;-75
2024/01/30 06:45:24;;;;;;;13.47;12.67;;;;;;;-0.17;66.46;94626.16;4990016;28;20312;-76
2024/01/30 06:47:50;;;;;;;12.10;11.50;;;;;;;-0.11;67.30;94629.84;4990271;28;20215;-75
2024/01/30 06:50:18;;;;;;;12.13;11.30;;;;;;;-0.14;66.31;94630.16;4991603;28;20191;-76
2024/01/30 06:52:45;;;;;;;12.43;11.73;;;;;;;0.00;66.05;94629.50;4993939;28;20216;-76
2024/01/30 06:55:11;;;;;;;14.07;12.97;;;;;;;0.09;65.78;94628.50;4993185;28;20219;-76
2024/01/30 06:57:37;;;;;;;12.83;11.97;;;;;;;0.11;64.41;94631.66;4993755;28;20195;-75
2024/01/30 07:00:03;;;;;;;11.73;11.03;;;;;;;-0.13;65.81;94617.16;4993540;28;20251;-76
2024/01/30 07:02:29;;;;;;;12.53;11.63;;;;;;;0.03;65.45;94630.91;4993067;28;20283;-75
2024/01/30 07:04:55;;;;;;;12.80;12.10;;;;;;;-0.19;64.87;94633.19;4993492;28;20199;-75
2024/01/30 07:07:22;;;;;;;14.10;12.83;;;;;;;-0.31;64.61;94629.38;4992183;28;20215;-74
2024/01/30 07:09:56;;;;;;;11.50;10.80;;;;;;;-0.16;65.24;94638.00;4993458;28;20191;-75
2024/01/30 07:12:25;;;;;;;12.07;11.37;;;;;;;-0.40;65.08;94629.56;4993049;28;20240;-74
2024/01/30 07:14:51;;;;;;;12.90;11.90;;;;;;;-0.46;66.13;94627.66;4993459;28;20188;-75
2024/01/30 07:17:18;;;;;;;12.50;11.53;;;;;;;-0.37;64.70;94634.34;4993027;28;20224;-75
2024/01/30 07:19:45;;;;;;;13.03;11.93;;;;;;;-0.34;64.81;94639.16;4993362;28;20204;-75
2024/01/30 07:22:12;;;;;;;12.00;11.20;;;;;;;-0.25;64.39;94638.22;4992793;28;20227;-76
2024/01/30 07:24:44;;;;;;;11.33;10.67;;;;;;;0.11;64.36;94641.94;4993238;28;20192;-76
2024/01/30 07:27:11;;;;;;;12.27;11.50;;;;;;;0.13;62.81;94640.00;4993403;28;20337;-76
2024/01/30 07:29:36;;;;;;;13.50;12.63;;;;;;;0.24;61.95;94644.00;4993218;28;20181;-76
2024/01/30 07:32:02;;;;;;;12.73;11.87;;;;;;;0.13;64.17;94640.00;4992652;28;20231;-77
2024/01/30 07:34:28;;;;;;;11.83;11.23;;;;;;;0.27;61.93;94621.34;4993043;28;20187;-76
2024/01/30 07:36:55;;;;;;;11.77;10.97;;;;;;;-0.02;62.46;94631.41;4992664;28;20228;-75
2024/01/30 07:39:22;;;;;;;10.73;10.17;;;;;;;0.04;61.99;94625.63;4992886;28;20217;-76
2024/01/30 07:41:48;;;;;;;12.23;11.23;;;;;;;0.41;61.35;94636.06;4992773;28;20216;-76
2024/01/30 07:44:14;;;;;;;11.10;10.60;;;;;;;0.61;59.61;94626.97;4993200;28;20176;-77
2024/01/30 07:46:40;;;;;;;10.13;9.57;;;;;;;0.36;60.36;94633.19;4992545;28;20232;-76
2024/01/30 07:49:06;;;;;;;11.20;10.60;;;;;;;0.40;59.82;94636.22;4992943;28;20176;-80
2024/01/30 07:51:32;;;;;;;11.23;10.43;;;;;;;0.65;59.21;94633.38;4992545;28;20223;-79
2024/01/30 07:53:59;;;;;;;10.27;9.67;;;;;;;0.58;58.54;94637.59;4993034;28;20267;-77
2024/01/30 07:56:26;;;;;;;13.27;11.93;;;;;;;0.63;59.07;94634.50;4992824;28;20223;-81
2024/01/30 07:58:55;;;;;;;11.80;11.20;;;;;;;0.57;59.97;94638.56;4992855;28;20183;-78
2024/01/30 08:01:21;;;;;;;10.03;9.47;;;;;;;0.68;58.30;94632.22;4992271;28;20298;-78
2024/01/30 08:03:46;;;;;;;12.53;11.83;;;;;;;0.46;60.01;94622.72;4992839;28;20192;-81
2024/01/30 08:06:13;;;;;;;12.47;11.77;;;;;;;0.64;60.04;94636.91;4991349;28;20235;-80
2024/01/30 08:08:39;;;;;;;11.07;10.47;;;;;;;0.83;58.58;94628.78;4992850;28;20176;-84
2024/01/30 08:11:06;;;;;;;11.20;10.57;;;;;;;0.67;59.13;94608.28;4991467;28;20226;-86
2024/01/30 08:13:32;;;;;;;10.73;10.23;;;;;;;0.65;60.55;94623.09;4992731;28;20207;-82
2024/01/30 08:15:58;;;;;;;12.67;11.87;;;;;;;0.82;59.66;94627.19;4991282;28;20220;-76
2024/01/30 08:18:24;;;;;;;11.47;10.87;;;;;;;0.97;57.84;94637.50;4992616;28;20199;-80
2024/01/30 08:20:50;;;;;;;10.90;10.33;;;;;;;0.86;59.26;94631.00;4991484;28;20223;-84
2024/01/30 08:23:16;;;;;;;12.23;11.53;;;;;;;1.03;57.83;94627.34;4992573;28;20172;-84
2024/01/30 08:25:43;;;;;;;11.10;10.53;;;;;;;0.74;59.07;94626.41;4991542;28;20228;-83
2024/01/30 08:28:10;;;;;;;12.47;11.77;;;;;;;0.88;59.59;94616.22;4992680;28;20184;-84
2024/01/30 08:30:36;;;;;;;12.23;11.50;;;;;;;0.68;59.60;94621.97;4991198;28;20216;-85
2024/01/30 08:33:02;;;;;;;11.70;11.00;;;;;;;0.56;59.68;94638.72;4992396;28;20306;-80
2024/01/30 08:35:28;;;;;;;12.27;11.57;;;;;;;1.01;59.06;94637.00;4991252;28;20173;-84
2024/01/30 08:37:54;;;;;;;12.57;11.77;;;;;;;1.19;57.86;94637.53;4992285;28;20212;-82
2024/01/30 08:40:20;;;;;;;11.43;10.73;;;;;;;1.23;57.56;94638.78;4991280;28;20224;-85
2024/01/30 08:42:48;;;;;;;14.63;13.33;;;;;;;0.98;58.54;94636.56;4992242;28;20190;-86
2024/01/30 08:45:13;;;;;;;13.17;12.37;;;;;;;1.27;57.84;94644.38;4991099;28;20180;-87
2024/01/30 08:47:41;;;;;;;11.83;10.97;;;;;;;1.23;56.86;94649.06;4992374;28;20455;-79
2024/01/30 08:50:08;;;;;;;12.17;11.30;;;;;;;1.22;56.81;94647.47;4992169;28;20187;-78
2024/01/30 08:52:34;;;;;;;12.17;11.37;;;;;;;1.16;56.45;94640.44;4990784;28;20223;-79
2024/01/30 08:55:01;;;;;;;11.63;11.03;;;;;;;1.06;57.25;94652.72;4992213;28;20188;-79
2024/01/30 08:57:29;;;;;;;11.47;10.87;;;;;;;1.00;57.12;94645.69;4991217;28;20238;-78
2024/01/30 08:59:56;;;;;;;12.47;11.77;;;;;;;0.83;58.19;94657.03;4992125;28;20222;-79
2024/01/30 09:02:22;;;;;;;12.87;12.03;;;;;;;0.67;59.87;94651.97;4990641;28;20291;-77
2024/01/30 09:04:48;;;;;;;13.07;12.37;;;;;;;1.10;57.26;94648.84;4992140;28;20180;-77
2024/01/30 09:07:14;;;;;;;13.40;12.40;;;;;;;1.06;58.91;94636.50;4990949;28;20224;-78
2024/01/30 09:09:41;;;;;;;13.60;12.60;;;;;;;1.30;57.37;94655.13;4991832;28;20184;-79
2024/01/30 09:12:09;;;;;;;12.40;11.57;;;;;;;1.44;57.38;94651.81;4990493;28;20223;-79
2024/01/30 09:14:37;;;;;;;11.57;10.70;;;;;;;1.60;56.50;94643.94;4992068;28;20176;-77
2024/01/30 09:17:04;;;;;;;11.53;10.63;;;;;;;1.55;56.58;94648.84;4991064;28;20224;-79
2024/01/30 09:19:32;;;;;;;12.30;11.43;;;;;;;1.67;56.89;94642.28;4991600;28;20188;-79
2024/01/30 09:22:00;;;;;;;12.37;11.57;;;;;;;2.29;54.63;94631.69;4991029;28;20224;-80
2024/01/30 09:24:27;;;;;;;11.63;10.93;;;;;;;2.12;55.10;94643.13;4991694;28;20184;-79
2024/01/30 09:26:53;;;;;;;12.57;11.77;;;;;;;1.83;53.73;94591.59;4991623;28;20235;-80
2024/01/30 09:29:19;;;;;;;13.43;12.53;;;;;;;2.16;54.33;94628.91;4991580;28;20178;-78
2024/01/30 09:31:48;;;;;;;12.80;11.90;;;;;;;1.98;56.37;94639.56;4991104;28;20258;-79
2024/01/30 09:34:14;;;;;;;12.00;10.90;;;;;;;2.12;55.40;94635.41;4991418;28;20191;-79
2024/01/30 09:36:41;;;;;;;13.03;12.03;;;;;;;1.69;55.77;94629.22;4991008;28;20228;-80
2024/01/30 09:39:08;;;;;;;12.23;11.33;;;;;;;2.04;54.79;94636.28;4990445;28;20297;-80
2024/01/30 09:42:02;;;;;;;12.40;11.70;;;;;;;2.16;54.27;94636.63;4988870;28;20228;-79
2024/01/30 09:44:30;;;;;;;12.40;11.70;;;;;;;2.16;53.62;94628.91;4991204;28;20266;-81
2024/01/30 09:47:03;;;;;;;18.77;12.03;;;;;;;2.00;55.32;94622.16;4988739;28;20232;-81
2024/01/30 09:49:32;;;;;;;14.00;12.87;;;;;;;1.80;55.51;94612.56;4991488;28;20177;-80
2024/01/30 09:51:59;;;;;;;13.17;12.27;;;;;;;2.02;56.27;94619.41;4988654;28;20284;-80
2024/01/30 09:54:26;;;;;;;11.97;11.13;;;;;;;2.20;54.38;94627.56;4991166;28;20187;-81
2024/01/30 09:56:53;;;;;;;12.23;11.43;;;;;;;1.94;54.39;94616.91;4991204;28;20227;-81
2024/01/30 09:59:19;;;;;;;13.40;12.50;;;;;;;1.59;54.38;94580.56;4991053;28;20255;-79
2024/01/30 10:01:45;;;;;;;12.57;11.57;;;;;;;1.60;54.77;94607.91;4988992;28;20219;-78
2024/01/30 10:04:11;;;;;;;12.83;11.83;;;;;;;1.59;55.33;94595.22;4990993;28;20191;-78
2024/01/30 10:06:38;;;;;;;13.03;12.17;;;;;;;1.58;55.74;94594.44;4990665;28;20216;-79
2024/01/30 10:09:04;;;;;;;12.70;11.57;;;;;;;1.82;54.68;94618.34;4991101;28;20195;-78
2024/01/30 10:11:31;;;;;;;12.43;11.53;;;;;;;1.41;55.37;94607.59;4989189;28;20227;-78
2024/01/30 10:13:58;;;;;;;12.77;11.80;;;;;;;1.03;58.05;94611.09;4990962;28;20184;-79
2024/01/30 10:16:24;;;;;;;13.00;12.20;;;;;;;0.89;59.30;94599.81;4989265;28;20223;-78
2024/01/30 10:18:50;;;;;;;13.00;12.17;;;;;;;1.32;56.46;94604.28;4990764;28;20172;-78
2024/01/30 10:21:16;;;;;;;13.63;12.60;;;;;;;1.40;56.75;94606.03;4989281;28;20234;-78
2024/01/30 10:23:47;;;;;;;14.00;11.87;;;;;;;1.50;56.01;94589.34;4991072;28;20172;-79
2024/01/30 10:26:13;;;;;;;14.27;13.07;;;;;;;1.45;56.23;94595.97;4992273;28;20223;-80
2024/01/30 10:28:39;;;;;;;13.47;12.47;;;;;;;1.76;55.77;94613.88;4993400;28;20217;-78
2024/01/30 10:31:06;;;;;;;12.70;11.90;;;;;;;1.97;55.04;94606.25;4992891;28;20224;-79
2024/01/30 10:33:33;;;;;;;14.43;13.03;;;;;;;2.16;54.82;94608.31;4994063;28;20226;-79
2024/01/30 10:36:04;;;;;;;13.60;12.33;;;;;;;2.18;54.54;94609.72;4993580;28;20241;-78
2024/01/30 10:38:32;;;;;;;12.17;11.30;;;;;;;2.40;54.18;94615.72;4993826;28;20186;-78
2024/01/30 10:41:00;;;;;;;13.53;12.53;;;;;;;2.31;53.86;94617.63;4992615;28;20220;-78
2024/01/30 10:43:40;;;;;;;13.67;12.27;;;;;;;1.83;55.64;94609.63;4993968;28;20203;-77
2024/01/30 10:46:19;;;;;;;13.10;12.20;;;;;;;1.97;55.91;94611.41;4993513;28;20310;-78
2024/01/30 10:48:58;;;;;;;14.80;13.60;;;;;;;2.05;56.15;94611.31;4993925;28;20183;-77
2024/01/30 10:51:28;;;;;;;11.80;10.90;;;;;;;2.31;55.67;94606.50;4993483;28;20230;-78
2024/01/30 10:53:56;;;;;;;17.27;12.07;;;;;;;2.35;55.97;94610.34;5009236;28;20556;-78
2024/01/30 10:56:23;;;;;;;12.93;11.73;;;;;;;2.16;55.61;94605.72;4993836;28;20242;-77
2024/01/30 10:58:53;;;;;;;14.23;13.13;;;;;;;2.70;64.27;94594.09;4993932;28;20202;-76
2024/01/30 11:01:22;;;;;;;13.73;12.73;;;;;;;2.48;57.10;94595.00;4993413;28;20235;-77
2024/01/30 11:03:53;;;;;;;11.93;11.13;;;;;;;2.38;56.64;94595.28;4994009;28;20211;-76
2024/01/30 11:06:23;;;;;;;11.70;10.80;;;;;;;1.90;58.39;94589.94;5008524;28;20228;-76
2024/01/30 11:09:12;;;;;;;12.33;11.43;;;;;;;2.12;56.61;94573.59;4993764;28;20314;-78
2024/01/30 11:11:52;;;;;;;11.57;10.87;;;;;;;2.13;56.49;94583.72;4993170;28;20228;-77
2024/01/30 11:14:25;;;;;;;12.53;11.43;;;;;;;2.33;56.85;94582.16;4993789;28;20176;-77
2024/01/30 11:16:52;;;;;;;12.63;11.83;;;;;;;2.48;56.48;94579.53;4989906;28;20227;-77
2024/01/30 11:19:26;;;;;;;11.93;10.90;;;;;;;2.70;55.85;94582.00;4993615;28;20184;-77
2024/01/30 11:21:59;;;;;;;12.37;11.50;;;;;;;2.68;54.67;94568.47;4990791;28;20224;-76